Hegeler, Illinois
Current Conditions -  °F | °C
As of 2:15 PM on Friday 31 Oct 2014 (Local Time) from KDNV Reporting Station
Overcast Overcast  
Wind Chill: 27°   Ceiling: 4000
Heat Index: 38°   Visibility: 10mi
Dew Point: 29°   Wind: 21mph
Humidity: 72%   Direction: 320°NW
Pressure: 30.08"   Gusts: 31mph
Location:  40.1365°N, 87.6307°W
Report Text: KDNV 311915Z AUTO 32018G27KT 10SM SCT031 BKN040 OVC046 03/M01 A3008 RMK AO2 T00311015
Loading
Personal Weather Stations






























Interactive Weather Map
Tropical Storm Tracking
New forecast layout! Learn more

10-Day Weather Forecast

Advertisements
Track Severe Weather on mobile